createdAt,value
2022-11-29T00:01:40.867Z,35.90
2022-11-29T00:04:08.839Z,37.00
2022-11-29T00:06:37.445Z,38.80
2022-11-29T00:09:08.922Z,36.70
2022-11-29T00:11:57.053Z,37.40
2022-11-29T00:14:27.642Z,37.90
2022-11-29T00:17:02.031Z,37.00
2022-11-29T00:19:35.330Z,36.90
2022-11-29T00:22:04.040Z,37.50
2022-11-29T00:24:32.663Z,37.30
2022-11-29T00:27:01.510Z,38.90
2022-11-29T00:29:30.465Z,38.00
2022-11-29T00:31:59.158Z,38.10
2022-11-29T00:34:27.193Z,37.60
2022-11-29T00:36:55.117Z,37.90
2022-11-29T00:39:23.311Z,38.40
2022-11-29T00:41:51.273Z,37.60
2022-11-29T00:44:20.578Z,37.10
2022-11-29T00:46:49.668Z,36.20
2022-11-29T00:49:17.639Z,38.30
2022-11-29T00:51:46.794Z,37.80
2022-11-29T00:54:16.015Z,36.70
2022-11-29T00:56:43.859Z,38.00
2022-11-29T00:59:11.787Z,36.30
2022-11-29T01:01:39.833Z,37.70
2022-11-29T01:04:07.772Z,38.70
2022-11-29T01:06:35.621Z,39.30
2022-11-29T01:09:04.399Z,37.60
2022-11-29T01:11:32.416Z,37.40
2022-11-29T01:14:02.190Z,37.50
2022-11-29T01:16:31.934Z,36.20
2022-11-29T01:19:00.613Z,36.20
2022-11-29T01:21:28.851Z,38.40
2022-11-29T01:23:57.538Z,37.80
2022-11-29T01:26:28.199Z,38.20
2022-11-29T01:28:58.610Z,37.10
2022-11-29T01:31:30.258Z,38.80
2022-11-29T01:34:02.445Z,39.50
2022-11-29T01:36:30.834Z,39.20
2022-11-29T01:39:00.727Z,38.40
2022-11-29T01:41:32.014Z,40.20
2022-11-29T01:44:12.059Z,38.20
2022-11-29T01:46:42.623Z,37.90
2022-11-29T01:49:22.946Z,39.10
2022-11-29T01:51:55.678Z,40.60
2022-11-29T01:54:23.739Z,38.00
2022-11-29T01:56:53.253Z,40.80
2022-11-29T01:59:25.709Z,42.30
2022-11-29T02:01:59.751Z,40.50
2022-11-29T02:04:37.176Z,41.10
2022-11-29T02:07:05.344Z,41.20
2022-11-29T02:09:33.678Z,40.70
2022-11-29T02:12:16.692Z,43.80
2022-11-29T02:14:49.565Z,39.80
2022-11-29T02:18:05.165Z,41.70
2022-11-29T02:21:09.889Z,39.50
2022-11-29T02:24:01.363Z,39.60
2022-11-29T02:27:06.982Z,38.00
2022-11-29T02:29:53.686Z,39.30
2022-11-29T02:32:58.971Z,37.70
2022-11-29T02:35:39.413Z,36.40
2022-11-29T02:38:16.546Z,38.60
2022-11-29T02:41:22.457Z,37.10
2022-11-29T02:44:22.651Z,34.20
2022-11-29T02:47:03.430Z,37.00
2022-11-29T02:49:57.031Z,35.60
2022-11-29T02:52:46.945Z,36.10
2022-11-29T02:55:44.132Z,33.50
2022-11-29T02:58:41.507Z,32.00
2022-11-29T03:01:23.505Z,30.30
2022-11-29T03:04:13.981Z,30.00
2022-11-29T03:07:00.573Z,30.80
2022-11-29T03:09:38.936Z,31.40
2022-11-29T03:12:45.408Z,32.20
2022-11-29T03:15:28.294Z,31.10
2022-11-29T03:18:33.463Z,30.70
2022-11-29T03:21:08.884Z,30.10
2022-11-29T03:23:51.524Z,29.50
2022-11-29T03:26:52.467Z,31.10
2022-11-29T03:29:45.687Z,31.40
2022-11-29T03:32:35.354Z,31.10
2022-11-29T03:35:09.233Z,31.40
2022-11-29T03:37:49.116Z,31.50
2022-11-29T03:40:21.284Z,29.80
2022-11-29T03:43:01.728Z,29.40
2022-11-29T03:45:39.103Z,30.10
2022-11-29T03:48:29.425Z,31.20
2022-11-29T03:51:03.958Z,31.50
2022-11-29T03:53:50.530Z,30.40
2022-11-29T03:56:39.631Z,28.50
2022-11-29T03:59:44.392Z,28.30
2022-11-29T04:02:44.933Z,36.10
2022-11-29T04:05:40.333Z,38.20
2022-11-29T04:08:08.198Z,30.20
2022-11-29T04:10:48.020Z,31.30
2022-11-29T04:13:37.436Z,29.60
2022-11-29T04:16:39.750Z,30.20
2022-11-29T04:19:38.284Z,29.60
2022-11-29T04:22:15.354Z,29.10
2022-11-29T04:24:52.126Z,31.60
2022-11-29T04:27:31.072Z,31.00
2022-11-29T04:30:11.549Z,29.00
2022-11-29T04:32:59.014Z,27.80
2022-11-29T04:35:35.785Z,27.00
2022-11-29T04:38:22.248Z,25.60
2022-11-29T04:41:09.816Z,27.10
2022-11-29T04:43:43.872Z,27.10
2022-11-29T04:46:14.707Z,27.20
2022-11-29T04:51:59.016Z,25.80
2022-11-29T04:54:31.182Z,24.00
2022-11-29T04:57:37.699Z,25.50
2022-11-29T05:00:09.952Z,26.10
2022-11-29T05:02:56.239Z,27.10
2022-11-29T05:05:36.446Z,26.30
2022-11-29T05:08:17.526Z,25.30
2022-11-29T05:14:07.641Z,26.00
2022-11-29T05:17:13.899Z,30.20
2022-11-29T05:20:04.893Z,29.70
2022-11-29T05:22:46.497Z,30.60
2022-11-29T05:25:50.443Z,26.80
2022-11-29T05:28:29.276Z,29.70
2022-11-29T05:31:11.376Z,28.60
2022-11-29T05:34:08.308Z,30.30
2022-11-29T05:36:36.163Z,30.30
2022-11-29T05:39:13.177Z,31.40
2022-11-29T05:41:44.083Z,32.40
2022-11-29T05:44:19.790Z,31.70
2022-11-29T05:47:01.836Z,30.70
2022-11-29T05:49:51.731Z,29.60
2022-11-29T05:52:31.901Z,28.40
2022-11-29T05:55:09.046Z,25.40
2022-11-29T05:58:17.385Z,25.50
2022-11-29T06:01:20.824Z,25.50
2022-11-29T06:04:14.606Z,27.60
2022-11-29T06:07:14.268Z,27.60
2022-11-29T06:09:53.489Z,29.80
2022-11-29T06:12:23.842Z,29.70
2022-11-29T06:15:10.530Z,30.60
2022-11-29T06:17:48.764Z,33.30
2022-11-29T06:20:47.909Z,30.70
2022-11-29T06:23:37.193Z,29.80
2022-11-29T06:26:18.580Z,30.30
2022-11-29T06:29:03.674Z,30.60
2022-11-29T06:31:43.457Z,32.00
2022-11-29T06:34:55.802Z,30.70
2022-11-29T06:37:49.380Z,32.10
2022-11-29T06:40:18.180Z,28.40
2022-11-29T06:42:46.016Z,29.60
2022-11-29T06:45:14.994Z,27.70
2022-11-29T06:47:45.075Z,28.00
2022-11-29T06:50:45.578Z,27.00
2022-11-29T06:53:32.525Z,27.30
2022-11-29T06:56:26.822Z,28.10
2022-11-29T06:59:16.455Z,26.60
2022-11-29T07:01:51.410Z,26.00
2022-11-29T07:04:25.348Z,25.20
2022-11-29T07:06:53.471Z,25.70
2022-11-29T07:09:28.175Z,22.70
2022-11-29T07:11:56.292Z,24.00
2022-11-29T07:14:24.469Z,22.80
2022-11-29T07:17:03.649Z,23.90
2022-11-29T07:19:44.036Z,24.40
2022-11-29T07:22:34.196Z,27.70
2022-11-29T07:25:09.086Z,25.00
2022-11-29T07:27:36.870Z,24.20
2022-11-29T07:30:30.280Z,23.60
2022-11-29T07:33:20.816Z,24.80
2022-11-29T07:35:48.700Z,21.40
2022-11-29T07:38:45.917Z,22.40
2022-11-29T07:41:35.732Z,21.50
2022-11-29T07:44:33.137Z,23.20
2022-11-29T07:47:01.152Z,22.80
2022-11-29T07:49:29.128Z,23.00
2022-11-29T07:51:57.040Z,21.10
2022-11-29T07:54:26.175Z,20.70
2022-11-29T07:56:53.991Z,21.10
2022-11-29T07:59:21.823Z,22.60
2022-11-29T08:01:49.710Z,20.00
2022-11-29T08:04:17.672Z,20.80
2022-11-29T08:06:45.589Z,20.40
2022-11-29T08:09:13.467Z,21.40
2022-11-29T08:11:42.066Z,23.10
2022-11-29T08:14:10.509Z,22.90
2022-11-29T08:16:38.478Z,22.50
2022-11-29T08:19:06.980Z,21.30
2022-11-29T08:21:34.927Z,21.90
2022-11-29T08:24:02.876Z,21.80
2022-11-29T08:26:31.804Z,25.20
2022-11-29T08:28:59.977Z,32.70
2022-11-29T08:31:27.824Z,29.40
2022-11-29T08:33:55.783Z,29.80
2022-11-29T08:36:23.644Z,27.60
2022-11-29T08:38:55.831Z,24.50
2022-11-29T08:41:30.267Z,24.50
2022-11-29T08:43:58.205Z,24.20
2022-11-29T08:46:46.083Z,24.00
2022-11-29T08:49:14.742Z,23.90
2022-11-29T08:51:42.639Z,22.80
2022-11-29T08:54:10.637Z,23.60
2022-11-29T08:59:27.102Z,20.40
2022-11-29T09:01:55.127Z,21.20
2022-11-29T09:04:23.042Z,19.90
2022-11-29T09:06:50.956Z,23.80
2022-11-29T09:09:19.026Z,23.90
2022-11-29T09:11:49.394Z,23.20
2022-11-29T09:14:17.902Z,22.10
2022-11-29T09:16:45.903Z,25.40
2022-11-29T09:19:14.584Z,26.90
2022-11-29T09:21:42.480Z,25.30
2022-11-29T09:24:10.798Z,25.60
2022-11-29T09:26:40.671Z,26.40
2022-11-29T09:29:09.251Z,24.50
2022-11-29T09:31:38.041Z,25.60
2022-11-29T09:34:05.823Z,27.40
2022-11-29T09:36:33.740Z,25.50
2022-11-29T09:39:02.977Z,22.60
2022-11-29T09:42:04.345Z,24.10
2022-11-29T09:47:27.874Z,22.20
2022-11-29T09:50:26.864Z,23.90
2022-11-29T09:53:13.574Z,24.30
2022-11-29T09:56:07.763Z,20.30
2022-11-29T09:58:44.923Z,20.20
2022-11-29T10:01:27.030Z,22.20
2022-11-29T10:04:01.735Z,20.70
2022-11-29T10:06:38.945Z,23.80
2022-11-29T10:09:27.440Z,23.30
2022-11-29T10:12:15.000Z,26.60
2022-11-29T10:14:56.845Z,30.20
2022-11-29T10:17:42.589Z,32.80
2022-11-29T10:20:27.237Z,29.40
2022-11-29T10:23:02.538Z,32.00
2022-11-29T10:25:45.370Z,27.00
2022-11-29T10:28:17.359Z,30.10
2022-11-29T10:30:45.496Z,27.70
2022-11-29T10:33:21.193Z,29.50
2022-11-29T10:35:52.901Z,26.40
2022-11-29T10:38:30.840Z,29.50
2022-11-29T10:41:13.573Z,27.30
2022-11-29T10:43:43.142Z,27.50
2022-11-29T10:46:21.219Z,27.20
2022-11-29T10:48:49.177Z,30.90
2022-11-29T10:51:18.151Z,29.50
2022-11-29T10:53:46.809Z,29.90
2022-11-29T10:56:24.279Z,28.50
2022-11-29T10:59:05.372Z,28.40
2022-11-29T11:01:38.428Z,27.10
2022-11-29T11:04:10.055Z,24.80
2022-11-29T11:06:56.500Z,25.10
2022-11-29T11:09:30.403Z,25.10
2022-11-29T11:12:02.901Z,23.80
2022-11-29T11:14:34.561Z,27.20
2022-11-29T11:17:22.991Z,30.10
2022-11-29T11:20:20.278Z,26.80
2022-11-29T11:23:00.963Z,28.20
2022-11-29T11:25:34.543Z,25.30
2022-11-29T11:28:20.857Z,25.50
2022-11-29T11:30:53.825Z,26.00
2022-11-29T11:33:26.838Z,26.70
2022-11-29T11:36:19.208Z,24.90
2022-11-29T11:38:57.951Z,26.40
2022-11-29T11:41:48.479Z,27.30
2022-11-29T11:44:52.436Z,30.10
2022-11-29T11:47:29.548Z,30.80
2022-11-29T11:50:00.489Z,35.90
2022-11-29T11:52:50.318Z,32.50
2022-11-29T11:55:21.576Z,31.70
2022-11-29T11:58:10.384Z,29.50
2022-11-29T12:01:05.067Z,27.40
2022-11-29T12:03:52.592Z,24.10
2022-11-29T12:06:25.454Z,26.10
2022-11-29T12:09:00.761Z,25.40
2022-11-29T12:11:38.074Z,28.20
2022-11-29T12:14:07.965Z,26.50
2022-11-29T12:16:39.125Z,28.90
2022-11-29T12:19:21.476Z,29.30
2022-11-29T12:21:56.007Z,27.30
2022-11-29T12:24:33.157Z,30.70
2022-11-29T12:27:04.933Z,30.10
2022-11-29T12:29:35.046Z,29.40
2022-11-29T12:32:08.933Z,27.70
2022-11-29T12:35:00.266Z,29.40
2022-11-29T12:37:37.427Z,32.30
2022-11-29T12:40:21.587Z,28.60
2022-11-29T12:43:21.094Z,29.50
2022-11-29T12:46:03.921Z,26.70
2022-11-29T12:49:01.585Z,28.10
2022-11-29T12:51:32.474Z,27.30
2022-11-29T12:54:06.398Z,26.70
2022-11-29T12:56:41.379Z,28.50
2022-11-29T12:59:23.574Z,30.50
2022-11-29T13:02:10.268Z,28.80
2022-11-29T13:05:07.520Z,27.70
2022-11-29T13:07:57.206Z,30.00
2022-11-29T13:10:29.054Z,28.70
2022-11-29T13:13:04.706Z,32.20
2022-11-29T13:15:46.529Z,32.90
2022-11-29T13:18:18.676Z,31.70
2022-11-29T13:21:07.225Z,35.90
2022-11-29T13:24:12.556Z,31.10
2022-11-29T13:26:41.990Z,27.80
2022-11-29T13:29:16.532Z,31.10
2022-11-29T13:31:46.813Z,29.00
2022-11-29T13:34:27.031Z,30.40
2022-11-29T13:37:10.498Z,32.00
2022-11-29T13:40:17.005Z,30.60
2022-11-29T13:42:49.700Z,32.70
2022-11-29T13:45:33.612Z,31.00
2022-11-29T13:48:24.937Z,53.80
2022-11-29T13:51:18.954Z,34.30
2022-11-29T13:53:49.159Z,30.40
2022-11-29T13:56:32.768Z,32.50
2022-11-29T13:59:05.830Z,35.50
2022-11-29T14:01:46.471Z,33.30
2022-11-29T14:04:24.206Z,27.00
2022-11-29T14:07:18.578Z,35.20
2022-11-29T14:09:59.597Z,34.50
2022-11-29T14:12:50.857Z,37.80
2022-11-29T14:17:57.868Z,35.20
2022-11-29T14:20:27.928Z,31.20
2022-11-29T14:23:09.646Z,42.00
2022-11-29T14:25:51.477Z,41.40
2022-11-29T14:28:23.170Z,40.80
2022-11-29T14:31:02.026Z,39.30
2022-11-29T14:33:37.325Z,40.20
2022-11-29T14:36:25.414Z,37.40
2022-11-29T14:39:07.923Z,34.80
2022-11-29T14:41:51.097Z,33.20
2022-11-29T14:44:24.260Z,36.20
2022-11-29T14:47:08.089Z,34.70
2022-11-29T14:49:44.664Z,36.10
2022-11-29T14:52:15.411Z,36.10
2022-11-29T14:55:06.356Z,51.90
2022-11-29T14:58:13.632Z,40.60
2022-11-29T15:00:47.449Z,39.20
2022-11-29T15:03:42.730Z,37.60
2022-11-29T15:06:23.385Z,37.30
2022-11-29T15:09:02.718Z,35.30
2022-11-29T15:11:34.250Z,35.20
2022-11-29T15:14:19.486Z,32.80
2022-11-29T15:17:03.917Z,32.60
2022-11-29T15:20:02.955Z,33.30
2022-11-29T15:22:36.823Z,37.90
2022-11-29T15:25:14.615Z,39.40
2022-11-29T15:27:52.783Z,41.50
2022-11-29T15:30:28.464Z,39.80
2022-11-29T15:32:58.565Z,42.40
2022-11-29T15:35:28.055Z,44.20
2022-11-29T15:37:56.375Z,44.30
2022-11-29T15:40:37.294Z,43.50
2022-11-29T15:43:26.427Z,41.80
2022-11-29T15:45:57.063Z,44.20
2022-11-29T15:48:30.736Z,40.40
2022-11-29T15:51:06.039Z,40.00
2022-11-29T15:54:12.780Z,41.00
2022-11-29T15:56:54.465Z,39.70
2022-11-29T15:59:53.725Z,41.70
2022-11-29T16:02:25.267Z,40.50
2022-11-29T16:04:58.208Z,41.10
2022-11-29T16:07:32.355Z,40.10
2022-11-29T16:10:40.391Z,39.40
2022-11-29T16:13:33.939Z,38.80
2022-11-29T16:16:21.608Z,49.50
2022-11-29T16:18:50.830Z,48.30
2022-11-29T16:21:30.673Z,51.50
2022-11-29T16:24:10.795Z,51.60
2022-11-29T16:26:44.013Z,51.10
2022-11-29T16:29:34.075Z,52.20
2022-11-29T16:32:23.882Z,50.70
2022-11-29T16:34:52.874Z,53.20
2022-11-29T16:37:26.314Z,53.40
2022-11-29T16:40:00.196Z,49.10
2022-11-29T16:42:30.707Z,51.80
2022-11-29T16:45:09.273Z,48.50
2022-11-29T16:47:59.313Z,48.20
2022-11-29T16:50:32.606Z,44.00
2022-11-29T16:53:42.209Z,44.30
2022-11-29T16:56:15.287Z,43.50
2022-11-29T16:59:24.862Z,47.40
2022-11-29T17:01:34.054Z,47.40
2022-11-29T17:04:02.191Z,46.60
2022-11-29T17:06:30.717Z,53.50
2022-11-29T17:08:59.758Z,54.90
2022-11-29T17:11:27.811Z,53.20
2022-11-29T17:13:56.053Z,58.70
2022-11-29T17:16:24.810Z,58.00
2022-11-29T17:18:53.738Z,56.60
2022-11-29T17:21:24.832Z,55.10
2022-11-29T17:26:22.564Z,62.60
2022-11-29T17:28:52.013Z,90.70
2022-11-29T17:31:24.344Z,96.80
2022-11-29T17:33:52.563Z,100.20
2022-11-29T17:36:21.214Z,91.10
2022-11-29T17:38:49.096Z,86.10
2022-11-29T17:41:20.937Z,86.60
2022-11-29T17:43:50.429Z,84.40
2022-11-29T17:46:30.316Z,82.10
2022-11-29T17:49:00.335Z,71.60
2022-11-29T17:51:51.038Z,70.70
2022-11-29T17:54:16.772Z,75.50
2022-11-29T17:56:44.967Z,73.30
2022-11-29T17:59:12.809Z,75.10
2022-11-29T18:01:40.719Z,71.50
2022-11-29T18:04:08.631Z,79.70
2022-11-29T18:06:39.096Z,79.50
2022-11-29T18:09:09.578Z,79.20
2022-11-29T18:11:47.608Z,69.90
2022-11-29T18:14:25.283Z,65.20
2022-11-29T18:16:53.720Z,61.90
2022-11-29T18:19:22.773Z,58.70
2022-11-29T18:21:51.408Z,61.20
2022-11-29T18:24:19.680Z,62.30
2022-11-29T18:26:47.780Z,70.60
2022-11-29T18:29:16.021Z,66.60
2022-11-29T18:31:45.215Z,70.40
2022-11-29T18:34:14.547Z,70.00
2022-11-29T18:36:47.403Z,71.60
2022-11-29T18:39:18.384Z,70.70
2022-11-29T18:41:48.394Z,73.80
2022-11-29T18:44:18.918Z,73.40
2022-11-29T18:46:47.203Z,74.80
2022-11-29T18:49:17.207Z,75.70
2022-11-29T18:51:46.623Z,74.10
2022-11-29T18:54:16.634Z,67.60
2022-11-29T18:56:45.836Z,66.00
2022-11-29T18:59:19.127Z,64.70
2022-11-29T19:01:48.463Z,64.60
2022-11-29T19:04:19.150Z,62.50
2022-11-29T19:06:47.489Z,68.80
2022-11-29T19:09:21.667Z,68.80
2022-11-29T19:11:50.337Z,69.60
2022-11-29T19:14:19.196Z,67.90
2022-11-29T19:16:49.787Z,65.90
2022-11-29T19:19:21.365Z,68.50
2022-11-29T19:21:49.317Z,65.00
2022-11-29T19:24:18.687Z,69.60
2022-11-29T19:26:49.694Z,69.90
2022-11-29T19:29:18.051Z,70.00
2022-11-29T19:31:46.128Z,67.80
2022-11-29T19:34:14.134Z,69.70
2022-11-29T19:36:43.581Z,70.50
2022-11-29T19:39:18.031Z,67.10
2022-11-29T19:41:47.749Z,61.20
2022-11-29T19:44:15.951Z,57.20
2022-11-29T19:46:48.266Z,54.50
2022-11-29T19:49:16.259Z,56.00
2022-11-29T19:51:44.157Z,64.40
2022-11-29T19:54:12.421Z,58.50
2022-11-29T19:56:40.504Z,55.90
2022-11-29T19:59:08.902Z,57.80
2022-11-29T20:01:41.548Z,58.00
2022-11-29T20:04:12.720Z,54.90
2022-11-29T20:06:41.046Z,53.10
2022-11-29T20:09:10.842Z,51.80
2022-11-29T20:11:38.928Z,51.80
2022-11-29T20:14:08.231Z,52.00
2022-11-29T20:16:38.130Z,52.00
2022-11-29T20:19:11.067Z,54.40
2022-11-29T20:21:48.816Z,52.80
2022-11-29T20:24:17.817Z,54.50
2022-11-29T20:26:47.664Z,57.30
2022-11-29T20:29:16.604Z,56.90
2022-11-29T20:31:49.918Z,56.10
2022-11-29T20:34:19.971Z,56.40
2022-11-29T20:37:12.988Z,56.00
2022-11-29T20:39:52.972Z,53.20
2022-11-29T20:42:38.648Z,54.90
2022-11-29T20:45:09.114Z,54.30
2022-11-29T20:48:11.311Z,54.20
2022-11-29T20:50:40.443Z,48.80
2022-11-29T20:53:32.985Z,51.10
2022-11-29T20:56:04.543Z,49.50
2022-11-29T20:58:33.684Z,48.00
2022-11-29T21:01:02.935Z,47.30
2022-11-29T21:03:31.262Z,46.80
2022-11-29T21:06:02.994Z,47.60
2022-11-29T21:08:31.509Z,50.60
2022-11-29T21:11:11.520Z,51.60
2022-11-29T21:13:39.689Z,52.60
2022-11-29T21:16:09.984Z,56.20
2022-11-29T21:18:38.475Z,54.20
2022-11-29T21:21:23.877Z,55.10
2022-11-29T21:24:38.215Z,48.80
2022-11-29T21:27:13.563Z,43.00
2022-11-29T21:29:42.236Z,40.00
2022-11-29T21:32:22.190Z,41.00
2022-11-29T21:34:50.129Z,39.80
2022-11-29T21:37:21.831Z,41.50
2022-11-29T21:39:51.599Z,40.10
2022-11-29T21:42:20.454Z,39.80
2022-11-29T21:44:48.566Z,40.30
2022-11-29T21:47:16.731Z,40.80
2022-11-29T21:49:46.431Z,41.40
2022-11-29T21:52:20.714Z,42.90
2022-11-29T21:54:50.604Z,42.30
2022-11-29T21:57:18.766Z,44.10
2022-11-29T21:59:46.636Z,44.10
2022-11-29T22:02:15.002Z,48.20
2022-11-29T22:04:43.595Z,52.10
2022-11-29T22:07:11.642Z,50.40
2022-11-29T22:09:39.752Z,52.50
2022-11-29T22:12:31.805Z,45.50
2022-11-29T22:14:55.710Z,41.50
2022-11-29T22:17:23.918Z,38.50
2022-11-29T22:19:51.756Z,37.10
2022-11-29T22:22:19.856Z,38.70
2022-11-29T22:24:48.040Z,38.00
2022-11-29T22:27:18.495Z,40.20
2022-11-29T22:29:46.529Z,40.90
2022-11-29T22:32:15.011Z,48.90
2022-11-29T22:34:42.986Z,63.40
2022-11-29T22:37:12.485Z,58.30
2022-11-29T22:39:40.491Z,54.70
2022-11-29T22:42:08.410Z,51.90
2022-11-29T22:44:36.383Z,49.30
2022-11-29T22:47:04.290Z,58.40
2022-11-29T22:49:33.306Z,53.90
2022-11-29T22:52:01.216Z,57.70
2022-11-29T22:54:29.185Z,54.10
2022-11-29T22:56:57.036Z,54.40
2022-11-29T22:59:24.916Z,56.60
2022-11-29T23:01:52.984Z,54.70
2022-11-29T23:04:21.157Z,67.80
2022-11-29T23:06:49.234Z,73.00
2022-11-29T23:09:20.342Z,78.20
2022-11-29T23:11:55.795Z,83.50
2022-11-29T23:14:24.346Z,85.80
2022-11-29T23:16:53.044Z,72.90
2022-11-29T23:19:22.422Z,73.10
2022-11-29T23:21:50.574Z,69.10
2022-11-29T23:24:18.681Z,71.80
2022-11-29T23:26:47.825Z,71.60
2022-11-29T23:29:18.036Z,73.00
2022-11-29T23:31:46.983Z,73.50
2022-11-29T23:34:15.290Z,62.90
2022-11-29T23:36:46.908Z,73.60
2022-11-29T23:39:17.679Z,74.60
2022-11-29T23:41:45.594Z,75.30
2022-11-29T23:44:13.493Z,69.80
2022-11-29T23:46:41.562Z,70.50
2022-11-29T23:49:09.683Z,67.80
2022-11-29T23:51:37.649Z,67.50
2022-11-29T23:54:05.635Z,64.90
2022-11-29T23:56:35.650Z,65.70
2022-11-29T23:59:03.802Z,68.40
